Billings Logan International Airport
KBIL : now visible

Airfield :











YOU CAN JOIN US ON...

 
LOGIN :

Register | Disclaimer

   EN    FR    IT 

 









Legend :    VFR   Marginal VFR   IFR   Intensive IFR   Very Intensive IFR
Visi :
Ceiling :
>= 8 km
>= 3000ft
5 to 8 km
1000 to 3000 ft
1500m to 5 km
500 to 1000 ft
800 to 1500m
200 to 500 ft
< 800m
< 200 ft
Symbols :   Thunderstorms  Fog  Heavy snow  Heavy precipitations  Wind > 20 kt






- Airport Elevation : 3652 ft
- IATA code : BIL


KBIL - Billings Logan International

CURRENT METAR :
  • 230453Z 11005KT 10SM OVC027 M07/M09 A3047 RMK AO2 SLP369 T10671094 $

EXPIRED METARs :
  • 230353Z 11006KT 10SM OVC026 M06/M09 A3046 RMK AO2 SNE30 SLP367 P0000 T10611094 $
  • 230253Z 10005KT 9SM -SN OVC028 M06/M09 A3046 RMK AO2 SLP367 P0000 60000 T10611089 52004 $

TAF KBIL
Valid from the 23 at 00:00 until the 24 at 00:00 UTC


222327Z 2300/2324 07007KT P6SM BKN030
FM230300 VRB05KT P6SM FEW008 BKN040
FM230700 VRB05KT 2SM BR BKN005
FM231500 15007KT P6SM FEW010 BKN070
KZLC FIR / North America



MET'MAP, your aeronautical weather chart ! - Copyright ORBIFLY December 2007 - Disclaimer

ORBIFLY MET'MAP TEAM :

Programming & Development : Alexandra Zaïnal
Concept & original design : Baudouin d'Aumeries
Assistance for programming : Marc-Olivier Méhu
Technical & hardware support : Manuel Goepfert

Contact : metmap@orbifly.com




SOURCES & CREDITS :

   NOAA       Earth
Advisory